sensor_id;sensor_type;location;lat;lon;timestamp;temperature;humidity
13328;DHT22;6733;51.044;3.746;2023-09-07T00:00:45;20.90;99.90
13328;DHT22;6733;51.044;3.746;2023-09-07T00:03:13;20.90;99.90
13328;DHT22;6733;51.044;3.746;2023-09-07T00:05:40;20.90;99.90
13328;DHT22;6733;51.044;3.746;2023-09-07T00:08:06;20.80;99.90
13328;DHT22;6733;51.044;3.746;2023-09-07T00:10:33;20.80;99.90
13328;DHT22;6733;51.044;3.746;2023-09-07T00:13:03;20.80;99.90
13328;DHT22;6733;51.044;3.746;2023-09-07T00:15:37;20.70;99.90
13328;DHT22;6733;51.044;3.746;2023-09-07T00:18:04;20.70;99.90
13328;DHT22;6733;51.044;3.746;2023-09-07T00:20:30;20.60;99.90
13328;DHT22;6733;51.044;3.746;2023-09-07T00:22:57;20.60;99.90
13328;DHT22;6733;51.044;3.746;2023-09-07T00:25:23;20.60;99.90
13328;DHT22;6733;51.044;3.746;2023-09-07T00:27:50;20.60;99.90
13328;DHT22;6733;51.044;3.746;2023-09-07T00:30:16;20.60;99.90
13328;DHT22;6733;51.044;3.746;2023-09-07T00:32:42;20.50;99.90
13328;DHT22;6733;51.044;3.746;2023-09-07T00:35:09;20.50;99.90
13328;DHT22;6733;51.044;3.746;2023-09-07T00:37:36;20.50;99.90
13328;DHT22;6733;51.044;3.746;2023-09-07T00:40:03;20.50;99.90
13328;DHT22;6733;51.044;3.746;2023-09-07T00:42:29;20.50;99.90
13328;DHT22;6733;51.044;3.746;2023-09-07T00:44:55;20.50;99.90
13328;DHT22;6733;51.044;3.746;2023-09-07T00:47:22;20.40;99.90
13328;DHT22;6733;51.044;3.746;2023-09-07T00:49:48;20.40;99.90
13328;DHT22;6733;51.044;3.746;2023-09-07T00:52:15;20.40;99.90
13328;DHT22;6733;51.044;3.746;2023-09-07T00:54:42;20.40;99.90
13328;DHT22;6733;51.044;3.746;2023-09-07T00:57:08;20.30;99.90
13328;DHT22;6733;51.044;3.746;2023-09-07T00:59:34;20.30;99.90
13328;DHT22;6733;51.044;3.746;2023-09-07T01:02:01;20.30;99.90
13328;DHT22;6733;51.044;3.746;2023-09-07T01:04:27;20.20;99.90
13328;DHT22;6733;51.044;3.746;2023-09-07T01:07:07;20.20;99.90
13328;DHT22;6733;51.044;3.746;2023-09-07T01:09:37;20.20;99.90
13328;DHT22;6733;51.044;3.746;2023-09-07T01:12:06;20.20;99.90
13328;DHT22;6733;51.044;3.746;2023-09-07T01:14:36;20.10;99.90
13328;DHT22;6733;51.044;3.746;2023-09-07T01:17:04;20.10;99.90
13328;DHT22;6733;51.044;3.746;2023-09-07T01:19:31;20.10;99.90
13328;DHT22;6733;51.044;3.746;2023-09-07T01:21:57;20.00;99.90
13328;DHT22;6733;51.044;3.746;2023-09-07T01:24:24;20.00;99.90
13328;DHT22;6733;51.044;3.746;2023-09-07T01:26:51;20.00;99.90
13328;DHT22;6733;51.044;3.746;2023-09-07T01:29:17;20.00;99.90
13328;DHT22;6733;51.044;3.746;2023-09-07T01:31:44;20.00;99.90
13328;DHT22;6733;51.044;3.746;2023-09-07T01:34:10;20.00;99.90
13328;DHT22;6733;51.044;3.746;2023-09-07T01:36:36;19.90;99.90
13328;DHT22;6733;51.044;3.746;2023-09-07T01:39:04;19.90;99.90
13328;DHT22;6733;51.044;3.746;2023-09-07T01:41:31;19.90;99.90
13328;DHT22;6733;51.044;3.746;2023-09-07T01:43:57;19.90;99.90
13328;DHT22;6733;51.044;3.746;2023-09-07T01:46:24;19.80;99.90
13328;DHT22;6733;51.044;3.746;2023-09-07T01:48:50;19.80;99.90
13328;DHT22;6733;51.044;3.746;2023-09-07T01:51:16;19.80;99.90
13328;DHT22;6733;51.044;3.746;2023-09-07T01:53:42;19.80;99.90
13328;DHT22;6733;51.044;3.746;2023-09-07T01:56:09;19.70;99.90
13328;DHT22;6733;51.044;3.746;2023-09-07T01:58:35;19.70;99.90
13328;DHT22;6733;51.044;3.746;2023-09-07T02:01:02;19.70;99.90
13328;DHT22;6733;51.044;3.746;2023-09-07T02:03:29;19.70;99.90
13328;DHT22;6733;51.044;3.746;2023-09-07T02:05:55;19.60;99.90
13328;DHT22;6733;51.044;3.746;2023-09-07T02:08:22;19.60;99.90
13328;DHT22;6733;51.044;3.746;2023-09-07T02:10:48;19.60;99.90
13328;DHT22;6733;51.044;3.746;2023-09-07T02:13:14;19.60;99.90
13328;DHT22;6733;51.044;3.746;2023-09-07T02:15:40;19.60;99.90
13328;DHT22;6733;51.044;3.746;2023-09-07T02:18:06;19.60;99.90
13328;DHT22;6733;51.044;3.746;2023-09-07T02:20:33;19.50;99.90
13328;DHT22;6733;51.044;3.746;2023-09-07T02:22:59;19.50;99.90
13328;DHT22;6733;51.044;3.746;2023-09-07T02:25:25;19.50;99.90
13328;DHT22;6733;51.044;3.746;2023-09-07T02:27:53;19.50;99.90
13328;DHT22;6733;51.044;3.746;2023-09-07T02:30:19;19.40;99.90
13328;DHT22;6733;51.044;3.746;2023-09-07T02:32:45;19.40;99.90
13328;DHT22;6733;51.044;3.746;2023-09-07T02:35:11;19.40;99.90
13328;DHT22;6733;51.044;3.746;2023-09-07T02:38:06;19.40;99.90
13328;DHT22;6733;51.044;3.746;2023-09-07T02:41:00;19.40;99.90
13328;DHT22;6733;51.044;3.746;2023-09-07T02:43:56;19.30;99.90
13328;DHT22;6733;51.044;3.746;2023-09-07T02:46:51;19.30;99.90
13328;DHT22;6733;51.044;3.746;2023-09-07T02:49:45;19.30;99.90
13328;DHT22;6733;51.044;3.746;2023-09-07T02:52:40;19.20;99.90
13328;DHT22;6733;51.044;3.746;2023-09-07T02:55:34;19.20;99.90
13328;DHT22;6733;51.044;3.746;2023-09-07T02:58:29;19.20;99.90
13328;DHT22;6733;51.044;3.746;2023-09-07T03:00:55;19.20;99.90
13328;DHT22;6733;51.044;3.746;2023-09-07T03:03:21;19.10;99.90
13328;DHT22;6733;51.044;3.746;2023-09-07T03:05:47;19.10;99.90
13328;DHT22;6733;51.044;3.746;2023-09-07T03:08:14;19.10;99.90
13328;DHT22;6733;51.044;3.746;2023-09-07T03:10:40;19.10;99.90
13328;DHT22;6733;51.044;3.746;2023-09-07T03:13:07;19.10;99.90
13328;DHT22;6733;51.044;3.746;2023-09-07T03:15:33;19.10;99.90
13328;DHT22;6733;51.044;3.746;2023-09-07T03:18:00;19.00;99.90
13328;DHT22;6733;51.044;3.746;2023-09-07T03:20:26;19.00;99.90
13328;DHT22;6733;51.044;3.746;2023-09-07T03:22:53;19.00;99.90
13328;DHT22;6733;51.044;3.746;2023-09-07T03:25:19;19.00;99.90
13328;DHT22;6733;51.044;3.746;2023-09-07T03:27:45;19.00;99.90
13328;DHT22;6733;51.044;3.746;2023-09-07T03:30:12;19.00;99.90
13328;DHT22;6733;51.044;3.746;2023-09-07T03:32:38;18.90;99.90
13328;DHT22;6733;51.044;3.746;2023-09-07T03:35:04;18.90;99.90
13328;DHT22;6733;51.044;3.746;2023-09-07T03:37:36;18.90;99.90
13328;DHT22;6733;51.044;3.746;2023-09-07T03:40:03;18.90;99.90
13328;DHT22;6733;51.044;3.746;2023-09-07T03:42:31;18.90;99.90
13328;DHT22;6733;51.044;3.746;2023-09-07T03:44:57;18.90;99.90
13328;DHT22;6733;51.044;3.746;2023-09-07T03:47:23;18.90;99.90
13328;DHT22;6733;51.044;3.746;2023-09-07T03:49:55;18.90;99.90
13328;DHT22;6733;51.044;3.746;2023-09-07T03:52:23;18.80;99.90
13328;DHT22;6733;51.044;3.746;2023-09-07T03:54:51;18.80;99.90
13328;DHT22;6733;51.044;3.746;2023-09-07T03:57:19;18.80;99.90
13328;DHT22;6733;51.044;3.746;2023-09-07T03:59:46;18.80;99.90
13328;DHT22;6733;51.044;3.746;2023-09-07T04:02:12;18.80;99.90
13328;DHT22;6733;51.044;3.746;2023-09-07T04:04:38;18.80;99.90
13328;DHT22;6733;51.044;3.746;2023-09-07T04:07:05;18.80;99.90
13328;DHT22;6733;51.044;3.746;2023-09-07T04:09:31;18.80;99.90
13328;DHT22;6733;51.044;3.746;2023-09-07T04:11:57;18.70;99.90
13328;DHT22;6733;51.044;3.746;2023-09-07T04:14:23;18.70;99.90
13328;DHT22;6733;51.044;3.746;2023-09-07T04:16:49;18.70;99.90
13328;DHT22;6733;51.044;3.746;2023-09-07T04:19:17;18.70;99.90
13328;DHT22;6733;51.044;3.746;2023-09-07T04:21:43;18.70;99.90
13328;DHT22;6733;51.044;3.746;2023-09-07T04:24:09;18.70;99.90
13328;DHT22;6733;51.044;3.746;2023-09-07T04:26:37;18.70;99.90
13328;DHT22;6733;51.044;3.746;2023-09-07T04:29:03;18.60;99.90
13328;DHT22;6733;51.044;3.746;2023-09-07T04:31:30;18.60;99.90
13328;DHT22;6733;51.044;3.746;2023-09-07T04:33:56;18.60;99.90
13328;DHT22;6733;51.044;3.746;2023-09-07T04:36:22;18.60;99.90
13328;DHT22;6733;51.044;3.746;2023-09-07T04:38:48;18.60;99.90
13328;DHT22;6733;51.044;3.746;2023-09-07T04:41:15;18.60;99.90
13328;DHT22;6733;51.044;3.746;2023-09-07T04:43:42;18.60;99.90
13328;DHT22;6733;51.044;3.746;2023-09-07T04:46:10;18.60;99.90
13328;DHT22;6733;51.044;3.746;2023-09-07T04:48:36;18.60;99.90
13328;DHT22;6733;51.044;3.746;2023-09-07T04:51:07;18.50;99.90
13328;DHT22;6733;51.044;3.746;2023-09-07T04:53:37;18.60;99.90
13328;DHT22;6733;51.044;3.746;2023-09-07T04:56:05;18.50;99.90
13328;DHT22;6733;51.044;3.746;2023-09-07T04:58:32;18.50;99.90
13328;DHT22;6733;51.044;3.746;2023-09-07T05:01:02;18.50;99.90
13328;DHT22;6733;51.044;3.746;2023-09-07T05:03:28;18.50;99.90
13328;DHT22;6733;51.044;3.746;2023-09-07T05:05:54;18.50;99.90
13328;DHT22;6733;51.044;3.746;2023-09-07T05:08:21;18.50;99.90
13328;DHT22;6733;51.044;3.746;2023-09-07T05:10:48;18.50;99.90
13328;DHT22;6733;51.044;3.746;2023-09-07T05:13:15;18.50;99.90
13328;DHT22;6733;51.044;3.746;2023-09-07T05:15:51;18.50;99.90
13328;DHT22;6733;51.044;3.746;2023-09-07T05:18:19;18.50;99.90
13328;DHT22;6733;51.044;3.746;2023-09-07T05:20:45;18.50;99.90
13328;DHT22;6733;51.044;3.746;2023-09-07T05:23:13;18.50;99.90
13328;DHT22;6733;51.044;3.746;2023-09-07T05:25:54;18.50;99.90
13328;DHT22;6733;51.044;3.746;2023-09-07T05:28:23;18.50;99.90
13328;DHT22;6733;51.044;3.746;2023-09-07T05:30:49;18.60;99.90
13328;DHT22;6733;51.044;3.746;2023-09-07T05:33:17;18.60;99.90
13328;DHT22;6733;51.044;3.746;2023-09-07T05:35:43;18.60;99.90
13328;DHT22;6733;51.044;3.746;2023-09-07T05:38:11;18.60;99.90
13328;DHT22;6733;51.044;3.746;2023-09-07T05:40:39;18.60;99.90
13328;DHT22;6733;51.044;3.746;2023-09-07T05:43:06;18.70;99.90
13328;DHT22;6733;51.044;3.746;2023-09-07T05:45:38;18.70;99.90
13328;DHT22;6733;51.044;3.746;2023-09-07T05:48:05;18.70;99.90
13328;DHT22;6733;51.044;3.746;2023-09-07T05:50:34;18.70;99.90
13328;DHT22;6733;51.044;3.746;2023-09-07T05:53:01;18.70;99.90
13328;DHT22;6733;51.044;3.746;2023-09-07T05:55:28;18.70;99.90
13328;DHT22;6733;51.044;3.746;2023-09-07T05:57:54;18.80;99.90
13328;DHT22;6733;51.044;3.746;2023-09-07T06:00:21;18.80;99.90
13328;DHT22;6733;51.044;3.746;2023-09-07T06:02:48;18.80;99.90
13328;DHT22;6733;51.044;3.746;2023-09-07T06:05:14;18.90;99.90
13328;DHT22;6733;51.044;3.746;2023-09-07T06:07:40;18.90;99.90
13328;DHT22;6733;51.044;3.746;2023-09-07T06:10:06;18.90;99.90
13328;DHT22;6733;51.044;3.746;2023-09-07T06:12:33;18.90;99.90
13328;DHT22;6733;51.044;3.746;2023-09-07T06:15:00;19.00;99.90
13328;DHT22;6733;51.044;3.746;2023-09-07T06:17:27;19.00;99.90
13328;DHT22;6733;51.044;3.746;2023-09-07T06:19:54;19.00;99.90
13328;DHT22;6733;51.044;3.746;2023-09-07T06:22:21;19.10;99.90
13328;DHT22;6733;51.044;3.746;2023-09-07T06:24:47;19.10;99.90
13328;DHT22;6733;51.044;3.746;2023-09-07T06:27:13;19.20;99.90
13328;DHT22;6733;51.044;3.746;2023-09-07T06:29:39;19.30;99.90
13328;DHT22;6733;51.044;3.746;2023-09-07T06:32:06;19.30;99.90
13328;DHT22;6733;51.044;3.746;2023-09-07T06:34:32;19.30;99.90
13328;DHT22;6733;51.044;3.746;2023-09-07T06:36:58;19.40;99.90
13328;DHT22;6733;51.044;3.746;2023-09-07T06:39:25;19.40;99.90
13328;DHT22;6733;51.044;3.746;2023-09-07T06:41:51;19.50;99.90
13328;DHT22;6733;51.044;3.746;2023-09-07T06:44:17;19.50;99.90
13328;DHT22;6733;51.044;3.746;2023-09-07T06:46:44;19.60;99.90
13328;DHT22;6733;51.044;3.746;2023-09-07T06:49:10;19.70;99.90
13328;DHT22;6733;51.044;3.746;2023-09-07T06:51:36;19.70;99.90
13328;DHT22;6733;51.044;3.746;2023-09-07T06:54:02;19.80;99.90
13328;DHT22;6733;51.044;3.746;2023-09-07T06:56:29;19.80;99.90
13328;DHT22;6733;51.044;3.746;2023-09-07T06:58:58;19.90;99.90
13328;DHT22;6733;51.044;3.746;2023-09-07T07:01:24;20.00;99.90
13328;DHT22;6733;51.044;3.746;2023-09-07T07:03:50;20.00;99.90
13328;DHT22;6733;51.044;3.746;2023-09-07T07:06:16;20.10;99.90
13328;DHT22;6733;51.044;3.746;2023-09-07T07:08:42;20.20;99.90
13328;DHT22;6733;51.044;3.746;2023-09-07T07:11:09;20.30;99.90
13328;DHT22;6733;51.044;3.746;2023-09-07T07:13:35;20.40;99.90
13328;DHT22;6733;51.044;3.746;2023-09-07T07:16:02;20.50;99.90
13328;DHT22;6733;51.044;3.746;2023-09-07T07:18:30;20.60;99.90
13328;DHT22;6733;51.044;3.746;2023-09-07T07:20:56;20.70;99.90
13328;DHT22;6733;51.044;3.746;2023-09-07T07:23:22;20.80;99.90
13328;DHT22;6733;51.044;3.746;2023-09-07T07:25:48;20.90;99.90
13328;DHT22;6733;51.044;3.746;2023-09-07T07:28:14;21.00;99.90
13328;DHT22;6733;51.044;3.746;2023-09-07T07:30:40;21.20;99.90
13328;DHT22;6733;51.044;3.746;2023-09-07T07:33:07;21.40;99.90
13328;DHT22;6733;51.044;3.746;2023-09-07T07:35:33;21.50;99.90
13328;DHT22;6733;51.044;3.746;2023-09-07T07:38:04;21.70;99.90
13328;DHT22;6733;51.044;3.746;2023-09-07T07:40:30;21.80;99.90
13328;DHT22;6733;51.044;3.746;2023-09-07T07:42:57;22.00;99.90
13328;DHT22;6733;51.044;3.746;2023-09-07T07:45:23;22.20;99.90
13328;DHT22;6733;51.044;3.746;2023-09-07T07:47:50;22.30;99.90
13328;DHT22;6733;51.044;3.746;2023-09-07T07:50:16;22.50;99.90
13328;DHT22;6733;51.044;3.746;2023-09-07T07:52:43;22.60;99.90
13328;DHT22;6733;51.044;3.746;2023-09-07T07:55:10;22.80;99.90
13328;DHT22;6733;51.044;3.746;2023-09-07T07:57:36;23.00;99.90
13328;DHT22;6733;51.044;3.746;2023-09-07T08:00:04;23.20;99.90
13328;DHT22;6733;51.044;3.746;2023-09-07T08:02:30;23.40;99.90
13328;DHT22;6733;51.044;3.746;2023-09-07T08:04:57;23.60;99.90
13328;DHT22;6733;51.044;3.746;2023-09-07T08:07:25;23.70;99.90
13328;DHT22;6733;51.044;3.746;2023-09-07T08:09:52;23.90;99.90
13328;DHT22;6733;51.044;3.746;2023-09-07T08:12:18;24.10;99.90
13328;DHT22;6733;51.044;3.746;2023-09-07T08:14:44;24.30;99.90
13328;DHT22;6733;51.044;3.746;2023-09-07T08:17:12;24.60;99.90
13328;DHT22;6733;51.044;3.746;2023-09-07T08:19:38;24.70;99.90
13328;DHT22;6733;51.044;3.746;2023-09-07T08:22:05;24.90;99.90
13328;DHT22;6733;51.044;3.746;2023-09-07T08:24:32;25.20;99.90
13328;DHT22;6733;51.044;3.746;2023-09-07T08:26:58;25.30;99.90
13328;DHT22;6733;51.044;3.746;2023-09-07T08:29:26;25.50;99.90
13328;DHT22;6733;51.044;3.746;2023-09-07T08:31:56;25.70;99.90
13328;DHT22;6733;51.044;3.746;2023-09-07T08:34:24;26.00;99.90
13328;DHT22;6733;51.044;3.746;2023-09-07T08:36:50;26.10;99.90
13328;DHT22;6733;51.044;3.746;2023-09-07T08:39:17;26.30;99.90
13328;DHT22;6733;51.044;3.746;2023-09-07T08:41:44;26.50;99.90
13328;DHT22;6733;51.044;3.746;2023-09-07T08:44:11;26.70;99.90
13328;DHT22;6733;51.044;3.746;2023-09-07T08:46:38;26.80;99.90
13328;DHT22;6733;51.044;3.746;2023-09-07T08:49:04;27.00;99.90
13328;DHT22;6733;51.044;3.746;2023-09-07T08:51:31;27.20;99.90
13328;DHT22;6733;51.044;3.746;2023-09-07T08:54:02;27.40;99.90
13328;DHT22;6733;51.044;3.746;2023-09-07T08:56:29;27.60;99.90
13328;DHT22;6733;51.044;3.746;2023-09-07T08:58:55;27.80;99.90
13328;DHT22;6733;51.044;3.746;2023-09-07T09:01:22;27.90;99.90
13328;DHT22;6733;51.044;3.746;2023-09-07T09:03:49;28.20;99.90
13328;DHT22;6733;51.044;3.746;2023-09-07T09:06:20;28.40;99.90
13328;DHT22;6733;51.044;3.746;2023-09-07T09:08:55;28.70;99.90
13328;DHT22;6733;51.044;3.746;2023-09-07T09:11:23;28.90;99.90
13328;DHT22;6733;51.044;3.746;2023-09-07T09:13:51;29.00;99.90
13328;DHT22;6733;51.044;3.746;2023-09-07T09:16:18;29.20;99.90
13328;DHT22;6733;51.044;3.746;2023-09-07T09:21:15;29.60;99.90
13328;DHT22;6733;51.044;3.746;2023-09-07T09:23:43;29.80;99.90
13328;DHT22;6733;51.044;3.746;2023-09-07T09:26:09;30.00;99.90
13328;DHT22;6733;51.044;3.746;2023-09-07T09:28:36;30.10;99.90
13328;DHT22;6733;51.044;3.746;2023-09-07T09:31:03;30.30;99.90
13328;DHT22;6733;51.044;3.746;2023-09-07T09:33:32;30.40;99.90
13328;DHT22;6733;51.044;3.746;2023-09-07T09:36:01;30.60;99.90
13328;DHT22;6733;51.044;3.746;2023-09-07T09:38:28;30.70;99.90
13328;DHT22;6733;51.044;3.746;2023-09-07T09:40:55;30.80;99.90
13328;DHT22;6733;51.044;3.746;2023-09-07T09:43:22;30.90;99.90
13328;DHT22;6733;51.044;3.746;2023-09-07T09:45:49;30.90;99.90
13328;DHT22;6733;51.044;3.746;2023-09-07T09:48:16;31.20;99.90
13328;DHT22;6733;51.044;3.746;2023-09-07T09:50:46;31.30;99.90
13328;DHT22;6733;51.044;3.746;2023-09-07T09:53:18;31.50;99.90
13328;DHT22;6733;51.044;3.746;2023-09-07T09:55:47;31.60;99.90
13328;DHT22;6733;51.044;3.746;2023-09-07T09:58:14;31.80;99.90
13328;DHT22;6733;51.044;3.746;2023-09-07T10:00:45;31.90;99.90
13328;DHT22;6733;51.044;3.746;2023-09-07T10:03:23;32.00;99.90
13328;DHT22;6733;51.044;3.746;2023-09-07T10:05:52;32.00;99.90
13328;DHT22;6733;51.044;3.746;2023-09-07T10:08:20;32.10;99.90
13328;DHT22;6733;51.044;3.746;2023-09-07T10:10:52;32.20;99.90
13328;DHT22;6733;51.044;3.746;2023-09-07T10:13:30;32.20;99.90
13328;DHT22;6733;51.044;3.746;2023-09-07T10:16:04;32.40;99.90
13328;DHT22;6733;51.044;3.746;2023-09-07T10:18:34;32.60;99.90
13328;DHT22;6733;51.044;3.746;2023-09-07T10:21:02;32.60;99.90
13328;DHT22;6733;51.044;3.746;2023-09-07T10:23:42;32.70;99.90
13328;DHT22;6733;51.044;3.746;2023-09-07T10:26:13;32.80;99.90
13328;DHT22;6733;51.044;3.746;2023-09-07T10:28:40;32.90;99.90
13328;DHT22;6733;51.044;3.746;2023-09-07T10:31:12;32.90;99.50
13328;DHT22;6733;51.044;3.746;2023-09-07T10:33:39;32.90;99.20
13328;DHT22;6733;51.044;3.746;2023-09-07T10:36:06;32.90;99.30
13328;DHT22;6733;51.044;3.746;2023-09-07T10:38:36;33.00;99.00
13328;DHT22;6733;51.044;3.746;2023-09-07T10:41:04;33.00;98.80
13328;DHT22;6733;51.044;3.746;2023-09-07T10:43:31;33.10;98.80
13328;DHT22;6733;51.044;3.746;2023-09-07T10:45:59;33.10;98.50
13328;DHT22;6733;51.044;3.746;2023-09-07T10:48:29;33.00;98.40
13328;DHT22;6733;51.044;3.746;2023-09-07T10:50:55;33.00;98.60
13328;DHT22;6733;51.044;3.746;2023-09-07T10:53:30;33.10;98.70
13328;DHT22;6733;51.044;3.746;2023-09-07T10:56:07;33.20;98.50
13328;DHT22;6733;51.044;3.746;2023-09-07T10:58:36;33.30;98.70
13328;DHT22;6733;51.044;3.746;2023-09-07T11:01:10;33.20;98.20
13328;DHT22;6733;51.044;3.746;2023-09-07T11:03:37;33.30;98.30
13328;DHT22;6733;51.044;3.746;2023-09-07T11:06:10;33.30;98.30
13328;DHT22;6733;51.044;3.746;2023-09-07T11:08:37;33.30;98.20
13328;DHT22;6733;51.044;3.746;2023-09-07T11:11:04;33.30;98.50
13328;DHT22;6733;51.044;3.746;2023-09-07T11:13:31;33.30;98.20
13328;DHT22;6733;51.044;3.746;2023-09-07T11:15:58;33.30;98.10
13328;DHT22;6733;51.044;3.746;2023-09-07T11:18:25;33.30;97.70
13328;DHT22;6733;51.044;3.746;2023-09-07T11:20:53;33.30;97.50
13328;DHT22;6733;51.044;3.746;2023-09-07T11:23:21;33.20;97.50
13328;DHT22;6733;51.044;3.746;2023-09-07T11:25:48;33.30;97.70
13328;DHT22;6733;51.044;3.746;2023-09-07T11:28:17;33.30;97.60
13328;DHT22;6733;51.044;3.746;2023-09-07T11:30:54;33.30;97.70
13328;DHT22;6733;51.044;3.746;2023-09-07T11:33:21;33.30;97.70
13328;DHT22;6733;51.044;3.746;2023-09-07T11:35:48;33.30;97.90
13328;DHT22;6733;51.044;3.746;2023-09-07T11:38:15;33.30;97.80
13328;DHT22;6733;51.044;3.746;2023-09-07T11:40:42;33.30;97.80
13328;DHT22;6733;51.044;3.746;2023-09-07T11:43:11;33.20;97.50
13328;DHT22;6733;51.044;3.746;2023-09-07T11:45:43;33.20;97.80
13328;DHT22;6733;51.044;3.746;2023-09-07T11:48:10;33.10;97.70
13328;DHT22;6733;51.044;3.746;2023-09-07T11:50:37;33.10;98.10
13328;DHT22;6733;51.044;3.746;2023-09-07T11:53:05;33.10;98.10
13328;DHT22;6733;51.044;3.746;2023-09-07T11:55:32;33.20;98.00
13328;DHT22;6733;51.044;3.746;2023-09-07T11:57:58;33.10;98.10
13328;DHT22;6733;51.044;3.746;2023-09-07T12:00:25;33.10;98.00
13328;DHT22;6733;51.044;3.746;2023-09-07T12:02:51;33.10;97.80
13328;DHT22;6733;51.044;3.746;2023-09-07T12:05:17;33.10;97.20
13328;DHT22;6733;51.044;3.746;2023-09-07T12:07:45;33.00;97.10
13328;DHT22;6733;51.044;3.746;2023-09-07T12:10:12;33.00;97.20
13328;DHT22;6733;51.044;3.746;2023-09-07T12:12:43;33.00;97.20
13328;DHT22;6733;51.044;3.746;2023-09-07T12:15:10;33.00;96.80
13328;DHT22;6733;51.044;3.746;2023-09-07T12:17:40;32.90;97.10
13328;DHT22;6733;51.044;3.746;2023-09-07T12:20:07;32.90;96.90
13328;DHT22;6733;51.044;3.746;2023-09-07T12:22:36;32.90;97.00
13328;DHT22;6733;51.044;3.746;2023-09-07T12:25:05;32.90;96.90
13328;DHT22;6733;51.044;3.746;2023-09-07T12:27:33;32.80;97.10
13328;DHT22;6733;51.044;3.746;2023-09-07T12:30:01;32.80;96.90
13328;DHT22;6733;51.044;3.746;2023-09-07T12:32:28;32.80;96.80
13328;DHT22;6733;51.044;3.746;2023-09-07T12:34:54;32.80;96.70
13328;DHT22;6733;51.044;3.746;2023-09-07T12:37:20;32.80;96.20
13328;DHT22;6733;51.044;3.746;2023-09-07T12:39:49;32.70;96.00
13328;DHT22;6733;51.044;3.746;2023-09-07T12:42:16;32.80;96.00
13328;DHT22;6733;51.044;3.746;2023-09-07T12:44:44;32.70;95.80
13328;DHT22;6733;51.044;3.746;2023-09-07T12:47:10;32.70;95.90
13328;DHT22;6733;51.044;3.746;2023-09-07T12:49:36;32.60;95.50
13328;DHT22;6733;51.044;3.746;2023-09-07T12:52:02;32.60;95.10
13328;DHT22;6733;51.044;3.746;2023-09-07T12:54:35;32.60;94.50
13328;DHT22;6733;51.044;3.746;2023-09-07T12:57:03;32.60;94.60
13328;DHT22;6733;51.044;3.746;2023-09-07T12:59:29;32.60;94.00
13328;DHT22;6733;51.044;3.746;2023-09-07T13:01:55;32.40;93.80
13328;DHT22;6733;51.044;3.746;2023-09-07T13:04:22;32.40;94.20
13328;DHT22;6733;51.044;3.746;2023-09-07T13:06:48;32.30;94.10
13328;DHT22;6733;51.044;3.746;2023-09-07T13:09:14;32.30;94.40
13328;DHT22;6733;51.044;3.746;2023-09-07T13:11:40;32.30;94.40
13328;DHT22;6733;51.044;3.746;2023-09-07T13:14:06;32.20;94.20
13328;DHT22;6733;51.044;3.746;2023-09-07T13:16:34;32.20;94.60
13328;DHT22;6733;51.044;3.746;2023-09-07T13:19:01;32.20;94.80
13328;DHT22;6733;51.044;3.746;2023-09-07T13:21:27;32.20;94.20
13328;DHT22;6733;51.044;3.746;2023-09-07T13:23:53;32.10;93.70
13328;DHT22;6733;51.044;3.746;2023-09-07T13:26:19;32.10;94.10
13328;DHT22;6733;51.044;3.746;2023-09-07T13:28:46;32.10;94.50
13328;DHT22;6733;51.044;3.746;2023-09-07T13:31:12;32.00;94.80
13328;DHT22;6733;51.044;3.746;2023-09-07T13:33:38;32.10;94.80
13328;DHT22;6733;51.044;3.746;2023-09-07T13:36:04;32.10;94.70
13328;DHT22;6733;51.044;3.746;2023-09-07T13:38:30;32.10;95.10
13328;DHT22;6733;51.044;3.746;2023-09-07T13:40:57;32.10;95.00
13328;DHT22;6733;51.044;3.746;2023-09-07T13:43:22;32.30;94.60
13328;DHT22;6733;51.044;3.746;2023-09-07T13:45:49;32.30;94.50
13328;DHT22;6733;51.044;3.746;2023-09-07T13:48:15;32.60;94.50
13328;DHT22;6733;51.044;3.746;2023-09-07T13:50:41;32.90;94.20
13328;DHT22;6733;51.044;3.746;2023-09-07T13:53:08;33.30;93.70
13328;DHT22;6733;51.044;3.746;2023-09-07T13:55:35;33.60;93.30
13328;DHT22;6733;51.044;3.746;2023-09-07T13:58:01;33.90;93.10
13328;DHT22;6733;51.044;3.746;2023-09-07T14:00:27;34.30;92.70
13328;DHT22;6733;51.044;3.746;2023-09-07T14:02:53;34.70;92.60
13328;DHT22;6733;51.044;3.746;2023-09-07T14:05:20;35.10;92.10
13328;DHT22;6733;51.044;3.746;2023-09-07T14:07:46;35.50;91.30
13328;DHT22;6733;51.044;3.746;2023-09-07T14:10:12;35.80;90.60
13328;DHT22;6733;51.044;3.746;2023-09-07T14:12:38;36.20;90.20
13328;DHT22;6733;51.044;3.746;2023-09-07T14:15:05;36.60;89.40
13328;DHT22;6733;51.044;3.746;2023-09-07T14:17:31;37.00;88.10
13328;DHT22;6733;51.044;3.746;2023-09-07T14:19:57;37.40;86.80
13328;DHT22;6733;51.044;3.746;2023-09-07T14:22:23;37.80;85.60
13328;DHT22;6733;51.044;3.746;2023-09-07T14:24:50;38.20;84.90
13328;DHT22;6733;51.044;3.746;2023-09-07T14:27:16;38.60;83.40
13328;DHT22;6733;51.044;3.746;2023-09-07T14:29:42;38.90;81.90
13328;DHT22;6733;51.044;3.746;2023-09-07T14:32:08;39.30;80.30
13328;DHT22;6733;51.044;3.746;2023-09-07T14:34:36;39.70;78.90
13328;DHT22;6733;51.044;3.746;2023-09-07T14:37:03;40.00;76.60
13328;DHT22;6733;51.044;3.746;2023-09-07T14:39:29;40.20;74.70
13328;DHT22;6733;51.044;3.746;2023-09-07T14:41:55;40.60;73.70
13328;DHT22;6733;51.044;3.746;2023-09-07T14:44:22;40.90;71.70
13328;DHT22;6733;51.044;3.746;2023-09-07T14:46:48;41.20;69.80
13328;DHT22;6733;51.044;3.746;2023-09-07T14:49:16;41.50;68.10
13328;DHT22;6733;51.044;3.746;2023-09-07T14:51:47;41.90;66.70
13328;DHT22;6733;51.044;3.746;2023-09-07T14:54:13;42.20;65.10
13328;DHT22;6733;51.044;3.746;2023-09-07T14:56:39;42.50;63.90
13328;DHT22;6733;51.044;3.746;2023-09-07T14:59:06;42.70;62.70
13328;DHT22;6733;51.044;3.746;2023-09-07T15:01:33;42.80;61.80
13328;DHT22;6733;51.044;3.746;2023-09-07T15:03:59;43.20;61.00
13328;DHT22;6733;51.044;3.746;2023-09-07T15:06:25;43.50;60.00
13328;DHT22;6733;51.044;3.746;2023-09-07T15:08:51;43.90;59.10
13328;DHT22;6733;51.044;3.746;2023-09-07T15:11:17;44.10;57.70
13328;DHT22;6733;51.044;3.746;2023-09-07T15:13:44;44.50;56.80
13328;DHT22;6733;51.044;3.746;2023-09-07T15:16:11;44.80;56.00
13328;DHT22;6733;51.044;3.746;2023-09-07T15:18:37;45.10;54.40
13328;DHT22;6733;51.044;3.746;2023-09-07T15:21:03;45.40;53.40
13328;DHT22;6733;51.044;3.746;2023-09-07T15:23:29;45.70;52.60
13328;DHT22;6733;51.044;3.746;2023-09-07T15:25:56;45.90;52.00
13328;DHT22;6733;51.044;3.746;2023-09-07T15:28:22;46.00;50.90
13328;DHT22;6733;51.044;3.746;2023-09-07T15:30:48;46.00;50.40
13328;DHT22;6733;51.044;3.746;2023-09-07T15:33:14;46.30;50.20
13328;DHT22;6733;51.044;3.746;2023-09-07T15:35:40;46.60;49.60
13328;DHT22;6733;51.044;3.746;2023-09-07T15:38:06;46.90;49.00
13328;DHT22;6733;51.044;3.746;2023-09-07T15:40:33;47.10;48.30
13328;DHT22;6733;51.044;3.746;2023-09-07T15:42:59;47.40;47.60
13328;DHT22;6733;51.044;3.746;2023-09-07T15:45:25;47.50;47.30
13328;DHT22;6733;51.044;3.746;2023-09-07T15:47:51;47.70;46.90
13328;DHT22;6733;51.044;3.746;2023-09-07T15:50:20;48.00;46.60